sensor_id;sensor_type;location;lat;lon;timestamp;P1;durP1;ratioP1;P2;durP2;ratioP2
3463;SDS011;3551;41.578;24.706;2023-08-30T00:01:57;16.43;;;10.73;;
3463;SDS011;3551;41.578;24.706;2023-08-30T00:04:26;11.50;;;8.80;;
3463;SDS011;3551;41.578;24.706;2023-08-30T00:06:53;16.77;;;9.60;;
3463;SDS011;3551;41.578;24.706;2023-08-30T00:09:21;11.43;;;9.37;;
3463;SDS011;3551;41.578;24.706;2023-08-30T00:11:52;15.20;;;9.43;;
3463;SDS011;3551;41.578;24.706;2023-08-30T00:14:19;18.83;;;9.63;;
3463;SDS011;3551;41.578;24.706;2023-08-30T00:16:47;13.73;;;9.03;;
3463;SDS011;3551;41.578;24.706;2023-08-30T00:19:15;23.77;;;9.97;;
3463;SDS011;3551;41.578;24.706;2023-08-30T00:21:43;20.93;;;9.87;;
3463;SDS011;3551;41.578;24.706;2023-08-30T00:24:13;13.10;;;9.10;;
3463;SDS011;3551;41.578;24.706;2023-08-30T00:26:41;18.03;;;9.60;;
3463;SDS011;3551;41.578;24.706;2023-08-30T00:29:10;14.53;;;9.47;;
3463;SDS011;3551;41.578;24.706;2023-08-30T00:31:38;14.97;;;10.13;;
3463;SDS011;3551;41.578;24.706;2023-08-30T00:34:05;11.93;;;9.03;;
3463;SDS011;3551;41.578;24.706;2023-08-30T00:36:33;12.10;;;9.90;;
3463;SDS011;3551;41.578;24.706;2023-08-30T00:39:00;17.73;;;8.70;;
3463;SDS011;3551;41.578;24.706;2023-08-30T00:41:29;12.80;;;8.60;;
3463;SDS011;3551;41.578;24.706;2023-08-30T00:43:56;13.37;;;8.93;;
3463;SDS011;3551;41.578;24.706;2023-08-30T00:46:24;14.37;;;10.10;;
3463;SDS011;3551;41.578;24.706;2023-08-30T00:48:52;14.60;;;9.13;;
3463;SDS011;3551;41.578;24.706;2023-08-30T00:51:20;19.57;;;9.43;;
3463;SDS011;3551;41.578;24.706;2023-08-30T00:53:47;11.57;;;9.03;;
3463;SDS011;3551;41.578;24.706;2023-08-30T00:56:16;12.43;;;9.20;;
3463;SDS011;3551;41.578;24.706;2023-08-30T00:58:46;14.83;;;8.87;;
3463;SDS011;3551;41.578;24.706;2023-08-30T01:01:15;16.30;;;9.30;;
3463;SDS011;3551;41.578;24.706;2023-08-30T01:03:45;11.00;;;8.77;;
3463;SDS011;3551;41.578;24.706;2023-08-30T01:06:13;11.67;;;8.13;;
3463;SDS011;3551;41.578;24.706;2023-08-30T01:08:40;12.77;;;8.93;;
3463;SDS011;3551;41.578;24.706;2023-08-30T01:11:11;14.27;;;9.67;;
3463;SDS011;3551;41.578;24.706;2023-08-30T01:13:46;18.60;;;9.00;;
3463;SDS011;3551;41.578;24.706;2023-08-30T01:16:20;15.40;;;9.27;;
3463;SDS011;3551;41.578;24.706;2023-08-30T01:18:51;13.27;;;9.27;;
3463;SDS011;3551;41.578;24.706;2023-08-30T01:21:25;14.03;;;8.90;;
3463;SDS011;3551;41.578;24.706;2023-08-30T01:23:59;13.57;;;9.00;;
3463;SDS011;3551;41.578;24.706;2023-08-30T01:26:34;18.47;;;9.60;;
3463;SDS011;3551;41.578;24.706;2023-08-30T01:29:09;13.33;;;9.00;;
3463;SDS011;3551;41.578;24.706;2023-08-30T01:31:41;15.30;;;9.80;;
3463;SDS011;3551;41.578;24.706;2023-08-30T01:34:10;12.70;;;9.13;;
3463;SDS011;3551;41.578;24.706;2023-08-30T01:36:40;11.10;;;8.90;;
3463;SDS011;3551;41.578;24.706;2023-08-30T01:39:09;17.13;;;9.30;;
3463;SDS011;3551;41.578;24.706;2023-08-30T01:41:38;12.83;;;9.47;;
3463;SDS011;3551;41.578;24.706;2023-08-30T01:44:06;15.10;;;9.10;;
3463;SDS011;3551;41.578;24.706;2023-08-30T01:46:37;13.53;;;8.60;;
3463;SDS011;3551;41.578;24.706;2023-08-30T01:49:05;12.60;;;9.33;;
3463;SDS011;3551;41.578;24.706;2023-08-30T01:51:34;11.30;;;8.67;;
3463;SDS011;3551;41.578;24.706;2023-08-30T01:54:02;12.60;;;8.27;;
3463;SDS011;3551;41.578;24.706;2023-08-30T01:56:31;20.90;;;9.03;;
3463;SDS011;3551;41.578;24.706;2023-08-30T01:58:58;12.43;;;9.80;;
3463;SDS011;3551;41.578;24.706;2023-08-30T02:01:25;14.90;;;9.43;;
3463;SDS011;3551;41.578;24.706;2023-08-30T02:03:54;24.30;;;9.97;;
3463;SDS011;3551;41.578;24.706;2023-08-30T02:06:22;14.47;;;8.37;;
3463;SDS011;3551;41.578;24.706;2023-08-30T02:08:54;12.40;;;9.40;;
3463;SDS011;3551;41.578;24.706;2023-08-30T02:11:26;21.50;;;11.00;;
3463;SDS011;3551;41.578;24.706;2023-08-30T02:13:57;14.17;;;10.27;;
3463;SDS011;3551;41.578;24.706;2023-08-30T02:16:25;11.93;;;8.77;;
3463;SDS011;3551;41.578;24.706;2023-08-30T02:18:55;15.13;;;9.80;;
3463;SDS011;3551;41.578;24.706;2023-08-30T02:21:25;13.97;;;9.90;;
3463;SDS011;3551;41.578;24.706;2023-08-30T02:23:53;22.83;;;10.60;;
3463;SDS011;3551;41.578;24.706;2023-08-30T02:26:20;13.73;;;10.07;;
3463;SDS011;3551;41.578;24.706;2023-08-30T02:28:48;15.27;;;10.10;;
3463;SDS011;3551;41.578;24.706;2023-08-30T02:31:15;17.30;;;10.20;;
3463;SDS011;3551;41.578;24.706;2023-08-30T02:33:42;19.73;;;9.40;;
3463;SDS011;3551;41.578;24.706;2023-08-30T02:36:11;12.77;;;8.90;;
3463;SDS011;3551;41.578;24.706;2023-08-30T02:38:39;13.70;;;9.20;;
3463;SDS011;3551;41.578;24.706;2023-08-30T02:41:06;13.77;;;9.60;;
3463;SDS011;3551;41.578;24.706;2023-08-30T02:43:35;16.50;;;9.20;;
3463;SDS011;3551;41.578;24.706;2023-08-30T02:46:03;11.90;;;8.03;;
3463;SDS011;3551;41.578;24.706;2023-08-30T02:48:31;14.50;;;9.17;;
3463;SDS011;3551;41.578;24.706;2023-08-30T02:50:58;13.10;;;9.27;;
3463;SDS011;3551;41.578;24.706;2023-08-30T02:53:30;12.00;;;8.80;;
3463;SDS011;3551;41.578;24.706;2023-08-30T02:56:11;14.57;;;9.50;;
3463;SDS011;3551;41.578;24.706;2023-08-30T02:58:39;10.20;;;7.80;;
3463;SDS011;3551;41.578;24.706;2023-08-30T03:01:06;14.03;;;9.60;;
3463;SDS011;3551;41.578;24.706;2023-08-30T03:03:34;15.27;;;8.50;;
3463;SDS011;3551;41.578;24.706;2023-08-30T03:06:01;15.10;;;7.67;;
3463;SDS011;3551;41.578;24.706;2023-08-30T03:08:30;16.83;;;8.70;;
3463;SDS011;3551;41.578;24.706;2023-08-30T03:11:07;11.50;;;8.60;;
3463;SDS011;3551;41.578;24.706;2023-08-30T03:13:35;14.53;;;9.13;;
3463;SDS011;3551;41.578;24.706;2023-08-30T03:16:09;15.20;;;8.80;;
3463;SDS011;3551;41.578;24.706;2023-08-30T03:18:37;15.47;;;8.97;;
3463;SDS011;3551;41.578;24.706;2023-08-30T03:21:05;12.23;;;8.90;;
3463;SDS011;3551;41.578;24.706;2023-08-30T03:23:35;11.37;;;8.20;;
3463;SDS011;3551;41.578;24.706;2023-08-30T03:26:09;16.23;;;8.70;;
3463;SDS011;3551;41.578;24.706;2023-08-30T03:28:37;11.93;;;8.20;;
3463;SDS011;3551;41.578;24.706;2023-08-30T03:31:12;13.20;;;9.00;;
3463;SDS011;3551;41.578;24.706;2023-08-30T03:33:40;15.10;;;9.25;;
3463;SDS011;3551;41.578;24.706;2023-08-30T03:36:09;11.40;;;8.83;;
3463;SDS011;3551;41.578;24.706;2023-08-30T03:38:38;12.80;;;8.40;;
3463;SDS011;3551;41.578;24.706;2023-08-30T03:41:06;15.43;;;7.80;;
3463;SDS011;3551;41.578;24.706;2023-08-30T03:43:35;15.33;;;9.70;;
3463;SDS011;3551;41.578;24.706;2023-08-30T03:46:02;11.70;;;8.37;;
3463;SDS011;3551;41.578;24.706;2023-08-30T03:48:30;9.57;;;8.07;;
3463;SDS011;3551;41.578;24.706;2023-08-30T03:50:57;13.27;;;9.03;;
3463;SDS011;3551;41.578;24.706;2023-08-30T03:53:27;15.53;;;9.10;;
3463;SDS011;3551;41.578;24.706;2023-08-30T03:55:57;16.40;;;8.90;;
3463;SDS011;3551;41.578;24.706;2023-08-30T03:58:24;19.80;;;9.27;;
3463;SDS011;3551;41.578;24.706;2023-08-30T04:00:52;15.53;;;8.70;;
3463;SDS011;3551;41.578;24.706;2023-08-30T04:03:19;24.70;;;9.90;;
3463;SDS011;3551;41.578;24.706;2023-08-30T04:05:46;22.60;;;9.87;;
3463;SDS011;3551;41.578;24.706;2023-08-30T04:08:13;17.50;;;10.50;;
3463;SDS011;3551;41.578;24.706;2023-08-30T04:10:41;15.27;;;9.60;;
3463;SDS011;3551;41.578;24.706;2023-08-30T04:13:14;14.87;;;11.30;;
3463;SDS011;3551;41.578;24.706;2023-08-30T04:15:42;18.63;;;11.23;;
3463;SDS011;3551;41.578;24.706;2023-08-30T04:18:09;18.27;;;10.33;;
3463;SDS011;3551;41.578;24.706;2023-08-30T04:20:43;17.43;;;8.33;;
3463;SDS011;3551;41.578;24.706;2023-08-30T04:23:11;11.40;;;7.93;;
3463;SDS011;3551;41.578;24.706;2023-08-30T04:25:40;22.13;;;8.43;;
3463;SDS011;3551;41.578;24.706;2023-08-30T04:28:07;16.50;;;8.20;;
3463;SDS011;3551;41.578;24.706;2023-08-30T04:30:37;14.33;;;8.90;;
3463;SDS011;3551;41.578;24.706;2023-08-30T04:33:04;13.37;;;8.23;;
3463;SDS011;3551;41.578;24.706;2023-08-30T04:35:32;12.07;;;8.77;;
3463;SDS011;3551;41.578;24.706;2023-08-30T04:38:00;15.77;;;9.23;;
3463;SDS011;3551;41.578;24.706;2023-08-30T04:40:28;13.50;;;8.00;;
3463;SDS011;3551;41.578;24.706;2023-08-30T04:42:56;19.90;;;8.20;;
3463;SDS011;3551;41.578;24.706;2023-08-30T04:45:27;20.83;;;8.60;;
3463;SDS011;3551;41.578;24.706;2023-08-30T04:47:58;15.20;;;8.17;;
3463;SDS011;3551;41.578;24.706;2023-08-30T04:50:30;22.93;;;8.73;;
3463;SDS011;3551;41.578;24.706;2023-08-30T04:52:57;27.10;;;9.83;;
3463;SDS011;3551;41.578;24.706;2023-08-30T04:55:28;25.70;;;9.37;;
3463;SDS011;3551;41.578;24.706;2023-08-30T04:57:56;34.27;;;9.77;;
3463;SDS011;3551;41.578;24.706;2023-08-30T05:00:23;17.73;;;10.00;;
3463;SDS011;3551;41.578;24.706;2023-08-30T05:02:52;36.23;;;12.67;;
3463;SDS011;3551;41.578;24.706;2023-08-30T05:05:25;26.27;;;11.20;;
3463;SDS011;3551;41.578;24.706;2023-08-30T05:07:58;23.70;;;9.60;;
3463;SDS011;3551;41.578;24.706;2023-08-30T05:10:27;60.40;;;12.90;;
3463;SDS011;3551;41.578;24.706;2023-08-30T05:12:59;40.77;;;11.40;;
3463;SDS011;3551;41.578;24.706;2023-08-30T05:15:28;26.40;;;9.77;;
3463;SDS011;3551;41.578;24.706;2023-08-30T05:17:57;24.00;;;9.70;;
3463;SDS011;3551;41.578;24.706;2023-08-30T05:23:44;32.73;;;11.20;;
3463;SDS011;3551;41.578;24.706;2023-08-30T05:26:14;19.17;;;9.00;;
3463;SDS011;3551;41.578;24.706;2023-08-30T05:28:50;20.10;;;9.47;;
3463;SDS011;3551;41.578;24.706;2023-08-30T05:31:21;28.60;;;11.00;;
3463;SDS011;3551;41.578;24.706;2023-08-30T05:34:02;31.43;;;9.73;;
3463;SDS011;3551;41.578;24.706;2023-08-30T05:36:29;27.10;;;9.70;;
3463;SDS011;3551;41.578;24.706;2023-08-30T05:38:57;36.60;;;10.93;;
3463;SDS011;3551;41.578;24.706;2023-08-30T05:41:24;26.30;;;9.83;;
3463;SDS011;3551;41.578;24.706;2023-08-30T05:43:51;14.37;;;8.80;;
3463;SDS011;3551;41.578;24.706;2023-08-30T05:46:18;20.20;;;7.97;;
3463;SDS011;3551;41.578;24.706;2023-08-30T05:48:45;30.47;;;9.20;;
3463;SDS011;3551;41.578;24.706;2023-08-30T05:51:12;21.97;;;9.90;;
3463;SDS011;3551;41.578;24.706;2023-08-30T05:53:39;12.33;;;8.90;;
3463;SDS011;3551;41.578;24.706;2023-08-30T05:56:09;16.43;;;8.43;;
3463;SDS011;3551;41.578;24.706;2023-08-30T05:58:36;17.33;;;8.63;;
3463;SDS011;3551;41.578;24.706;2023-08-30T06:01:06;16.23;;;8.90;;
3463;SDS011;3551;41.578;24.706;2023-08-30T06:03:33;17.70;;;8.33;;
3463;SDS011;3551;41.578;24.706;2023-08-30T06:06:05;34.77;;;11.07;;
3463;SDS011;3551;41.578;24.706;2023-08-30T06:08:36;26.33;;;9.60;;
3463;SDS011;3551;41.578;24.706;2023-08-30T06:11:03;19.03;;;9.10;;
3463;SDS011;3551;41.578;24.706;2023-08-30T06:13:33;20.50;;;8.10;;
3463;SDS011;3551;41.578;24.706;2023-08-30T06:16:00;33.50;;;8.77;;
3463;SDS011;3551;41.578;24.706;2023-08-30T06:18:37;24.80;;;9.10;;
3463;SDS011;3551;41.578;24.706;2023-08-30T06:21:09;52.70;;;9.03;;
3463;SDS011;3551;41.578;24.706;2023-08-30T06:23:37;9.97;;;7.70;;
3463;SDS011;3551;41.578;24.706;2023-08-30T06:26:32;24.83;;;8.73;;
3463;SDS011;3551;41.578;24.706;2023-08-30T06:29:01;20.47;;;7.27;;
3463;SDS011;3551;41.578;24.706;2023-08-30T06:31:32;29.77;;;9.50;;
3463;SDS011;3551;41.578;24.706;2023-08-30T06:34:02;26.30;;;8.40;;
3463;SDS011;3551;41.578;24.706;2023-08-30T06:36:30;33.47;;;6.30;;
3463;SDS011;3551;41.578;24.706;2023-08-30T06:38:59;24.53;;;7.00;;
3463;SDS011;3551;41.578;24.706;2023-08-30T06:41:26;26.13;;;6.87;;
3463;SDS011;3551;41.578;24.706;2023-08-30T06:43:53;19.60;;;7.27;;
3463;SDS011;3551;41.578;24.706;2023-08-30T06:46:24;27.80;;;7.00;;
3463;SDS011;3551;41.578;24.706;2023-08-30T06:48:52;9.30;;;5.20;;
3463;SDS011;3551;41.578;24.706;2023-08-30T06:51:22;15.40;;;5.47;;
3463;SDS011;3551;41.578;24.706;2023-08-30T06:53:50;15.10;;;5.87;;
3463;SDS011;3551;41.578;24.706;2023-08-30T06:56:17;24.73;;;7.43;;
3463;SDS011;3551;41.578;24.706;2023-08-30T06:58:45;23.97;;;7.90;;
3463;SDS011;3551;41.578;24.706;2023-08-30T07:01:13;32.40;;;6.63;;
3463;SDS011;3551;41.578;24.706;2023-08-30T07:03:42;21.27;;;6.73;;
3463;SDS011;3551;41.578;24.706;2023-08-30T07:06:10;24.20;;;6.73;;
3463;SDS011;3551;41.578;24.706;2023-08-30T07:08:37;19.77;;;6.50;;
3463;SDS011;3551;41.578;24.706;2023-08-30T07:11:05;16.03;;;6.40;;
3463;SDS011;3551;41.578;24.706;2023-08-30T07:13:32;12.57;;;5.70;;
3463;SDS011;3551;41.578;24.706;2023-08-30T07:15:59;19.10;;;5.97;;
3463;SDS011;3551;41.578;24.706;2023-08-30T07:18:26;19.90;;;6.70;;
3463;SDS011;3551;41.578;24.706;2023-08-30T07:20:55;15.83;;;6.73;;
3463;SDS011;3551;41.578;24.706;2023-08-30T07:23:22;11.77;;;5.53;;
3463;SDS011;3551;41.578;24.706;2023-08-30T07:25:51;17.63;;;7.83;;
3463;SDS011;3551;41.578;24.706;2023-08-30T07:28:18;22.93;;;7.30;;
3463;SDS011;3551;41.578;24.706;2023-08-30T07:30:46;34.60;;;7.73;;
3463;SDS011;3551;41.578;24.706;2023-08-30T07:33:14;32.30;;;6.93;;
3463;SDS011;3551;41.578;24.706;2023-08-30T07:35:41;16.93;;;6.10;;
3463;SDS011;3551;41.578;24.706;2023-08-30T07:38:10;15.10;;;5.97;;
3463;SDS011;3551;41.578;24.706;2023-08-30T07:40:37;11.60;;;5.20;;
3463;SDS011;3551;41.578;24.706;2023-08-30T07:43:04;9.23;;;4.00;;
3463;SDS011;3551;41.578;24.706;2023-08-30T07:45:31;8.17;;;4.80;;
3463;SDS011;3551;41.578;24.706;2023-08-30T07:48:04;10.30;;;4.60;;
3463;SDS011;3551;41.578;24.706;2023-08-30T07:50:32;12.23;;;4.03;;
3463;SDS011;3551;41.578;24.706;2023-08-30T07:52:59;16.03;;;5.83;;
3463;SDS011;3551;41.578;24.706;2023-08-30T07:55:28;14.20;;;5.90;;
3463;SDS011;3551;41.578;24.706;2023-08-30T07:57:55;15.70;;;5.43;;
3463;SDS011;3551;41.578;24.706;2023-08-30T08:00:22;11.63;;;5.30;;
3463;SDS011;3551;41.578;24.706;2023-08-30T08:02:49;7.53;;;4.17;;
3463;SDS011;3551;41.578;24.706;2023-08-30T08:05:18;7.00;;;4.20;;
3463;SDS011;3551;41.578;24.706;2023-08-30T08:07:50;8.97;;;4.00;;
3463;SDS011;3551;41.578;24.706;2023-08-30T08:10:18;7.90;;;4.90;;
3463;SDS011;3551;41.578;24.706;2023-08-30T08:12:54;6.90;;;4.13;;
3463;SDS011;3551;41.578;24.706;2023-08-30T08:15:40;8.27;;;4.10;;
3463;SDS011;3551;41.578;24.706;2023-08-30T08:18:25;12.73;;;3.97;;
3463;SDS011;3551;41.578;24.706;2023-08-30T08:20:53;15.50;;;4.10;;
3463;SDS011;3551;41.578;24.706;2023-08-30T08:23:21;7.80;;;3.80;;
3463;SDS011;3551;41.578;24.706;2023-08-30T08:25:49;7.77;;;4.13;;
3463;SDS011;3551;41.578;24.706;2023-08-30T08:28:17;11.20;;;3.73;;
3463;SDS011;3551;41.578;24.706;2023-08-30T08:30:45;15.07;;;4.13;;
3463;SDS011;3551;41.578;24.706;2023-08-30T08:33:16;5.10;;;3.03;;
3463;SDS011;3551;41.578;24.706;2023-08-30T08:35:43;11.57;;;4.77;;
3463;SDS011;3551;41.578;24.706;2023-08-30T08:38:11;18.10;;;5.00;;
3463;SDS011;3551;41.578;24.706;2023-08-30T08:40:39;5.03;;;3.60;;
3463;SDS011;3551;41.578;24.706;2023-08-30T08:43:06;7.90;;;4.40;;
3463;SDS011;3551;41.578;24.706;2023-08-30T08:45:36;10.77;;;4.27;;
3463;SDS011;3551;41.578;24.706;2023-08-30T08:48:05;11.43;;;4.17;;
3463;SDS011;3551;41.578;24.706;2023-08-30T08:50:33;9.20;;;5.00;;
3463;SDS011;3551;41.578;24.706;2023-08-30T08:53:00;7.90;;;4.00;;
3463;SDS011;3551;41.578;24.706;2023-08-30T08:56:05;7.77;;;4.83;;
3463;SDS011;3551;41.578;24.706;2023-08-30T08:58:23;8.60;;;4.10;;
3463;SDS011;3551;41.578;24.706;2023-08-30T09:00:54;8.43;;;4.17;;
3463;SDS011;3551;41.578;24.706;2023-08-30T09:03:22;5.80;;;4.03;;
3463;SDS011;3551;41.578;24.706;2023-08-30T09:05:50;9.57;;;4.10;;
3463;SDS011;3551;41.578;24.706;2023-08-30T09:08:20;20.87;;;5.63;;
3463;SDS011;3551;41.578;24.706;2023-08-30T09:10:48;7.30;;;4.03;;
3463;SDS011;3551;41.578;24.706;2023-08-30T09:13:16;28.80;;;6.93;;
3463;SDS011;3551;41.578;24.706;2023-08-30T09:15:45;14.90;;;4.43;;
3463;SDS011;3551;41.578;24.706;2023-08-30T09:18:16;8.90;;;4.43;;
3463;SDS011;3551;41.578;24.706;2023-08-30T09:20:45;8.70;;;4.80;;
3463;SDS011;3551;41.578;24.706;2023-08-30T09:27:45;12.93;;;4.83;;
3463;SDS011;3551;41.578;24.706;2023-08-30T09:30:24;7.07;;;4.90;;
3463;SDS011;3551;41.578;24.706;2023-08-30T10:11:31;22.67;;;6.30;;
3463;SDS011;3551;41.578;24.706;2023-08-30T10:14:17;12.07;;;6.30;;
3463;SDS011;3551;41.578;24.706;2023-08-30T10:16:45;14.17;;;5.23;;
3463;SDS011;3551;41.578;24.706;2023-08-30T10:19:15;16.53;;;6.77;;
3463;SDS011;3551;41.578;24.706;2023-08-30T10:21:43;11.90;;;5.43;;
3463;SDS011;3551;41.578;24.706;2023-08-30T10:24:11;7.87;;;5.70;;
3463;SDS011;3551;41.578;24.706;2023-08-30T10:26:42;11.17;;;6.23;;
3463;SDS011;3551;41.578;24.706;2023-08-30T10:29:15;15.27;;;6.67;;
3463;SDS011;3551;41.578;24.706;2023-08-30T10:31:43;21.73;;;7.43;;
3463;SDS011;3551;41.578;24.706;2023-08-30T10:34:13;11.23;;;6.07;;
3463;SDS011;3551;41.578;24.706;2023-08-30T10:37:11;11.57;;;6.10;;
3463;SDS011;3551;41.578;24.706;2023-08-30T10:39:39;16.57;;;6.83;;
3463;SDS011;3551;41.578;24.706;2023-08-30T10:42:15;24.43;;;7.40;;
3463;SDS011;3551;41.578;24.706;2023-08-30T10:44:51;10.10;;;6.63;;
3463;SDS011;3551;41.578;24.706;2023-08-30T10:47:23;16.80;;;7.07;;
3463;SDS011;3551;41.578;24.706;2023-08-30T10:49:56;14.70;;;6.50;;
3463;SDS011;3551;41.578;24.706;2023-08-30T10:52:29;16.30;;;7.67;;
3463;SDS011;3551;41.578;24.706;2023-08-30T10:55:04;20.03;;;7.13;;
3463;SDS011;3551;41.578;24.706;2023-08-30T10:57:35;13.13;;;6.87;;
3463;SDS011;3551;41.578;24.706;2023-08-30T11:00:03;12.17;;;7.37;;
3463;SDS011;3551;41.578;24.706;2023-08-30T11:02:32;40.93;;;9.73;;
3463;SDS011;3551;41.578;24.706;2023-08-30T11:05:04;33.57;;;8.27;;
3463;SDS011;3551;41.578;24.706;2023-08-30T11:07:33;92.43;;;13.43;;
3463;SDS011;3551;41.578;24.706;2023-08-30T11:10:01;24.73;;;8.60;;
3463;SDS011;3551;41.578;24.706;2023-08-30T11:12:31;18.27;;;8.13;;
3463;SDS011;3551;41.578;24.706;2023-08-30T11:15:00;59.77;;;10.60;;
3463;SDS011;3551;41.578;24.706;2023-08-30T11:17:27;52.83;;;9.87;;
3463;SDS011;3551;41.578;24.706;2023-08-30T11:19:57;40.23;;;9.23;;
3463;SDS011;3551;41.578;24.706;2023-08-30T11:22:31;33.93;;;8.50;;
3463;SDS011;3551;41.578;24.706;2023-08-30T11:24:58;22.23;;;8.80;;
3463;SDS011;3551;41.578;24.706;2023-08-30T11:27:25;33.57;;;10.47;;
3463;SDS011;3551;41.578;24.706;2023-08-30T11:29:52;46.30;;;8.30;;
3463;SDS011;3551;41.578;24.706;2023-08-30T11:32:20;16.93;;;8.13;;
3463;SDS011;3551;41.578;24.706;2023-08-30T11:34:55;41.57;;;9.30;;
3463;SDS011;3551;41.578;24.706;2023-08-30T11:37:22;42.10;;;8.70;;
3463;SDS011;3551;41.578;24.706;2023-08-30T11:39:54;19.87;;;8.57;;
3463;SDS011;3551;41.578;24.706;2023-08-30T11:42:24;15.53;;;8.23;;
3463;SDS011;3551;41.578;24.706;2023-08-30T11:44:52;27.23;;;9.10;;
3463;SDS011;3551;41.578;24.706;2023-08-30T11:47:21;26.20;;;8.37;;
3463;SDS011;3551;41.578;24.706;2023-08-30T11:49:49;12.13;;;7.93;;
3463;SDS011;3551;41.578;24.706;2023-08-30T11:52:18;20.43;;;8.70;;
3463;SDS011;3551;41.578;24.706;2023-08-30T11:54:46;26.87;;;8.00;;
3463;SDS011;3551;41.578;24.706;2023-08-30T11:57:14;10.10;;;6.60;;
3463;SDS011;3551;41.578;24.706;2023-08-30T11:59:41;15.50;;;7.80;;
3463;SDS011;3551;41.578;24.706;2023-08-30T12:02:08;12.57;;;7.30;;
3463;SDS011;3551;41.578;24.706;2023-08-30T12:04:42;17.30;;;7.10;;
3463;SDS011;3551;41.578;24.706;2023-08-30T12:07:20;37.23;;;8.67;;
3463;SDS011;3551;41.578;24.706;2023-08-30T12:09:48;28.40;;;9.63;;
3463;SDS011;3551;41.578;24.706;2023-08-30T12:12:15;39.70;;;10.10;;
3463;SDS011;3551;41.578;24.706;2023-08-30T12:14:42;14.10;;;8.00;;
3463;SDS011;3551;41.578;24.706;2023-08-30T12:17:09;20.13;;;8.07;;
3463;SDS011;3551;41.578;24.706;2023-08-30T12:19:37;18.90;;;8.47;;
3463;SDS011;3551;41.578;24.706;2023-08-30T12:22:08;13.83;;;7.50;;
3463;SDS011;3551;41.578;24.706;2023-08-30T12:24:40;21.60;;;8.20;;
3463;SDS011;3551;41.578;24.706;2023-08-30T12:27:08;22.73;;;7.73;;
3463;SDS011;3551;41.578;24.706;2023-08-30T12:29:35;17.70;;;8.90;;
3463;SDS011;3551;41.578;24.706;2023-08-30T12:32:02;21.47;;;8.10;;
3463;SDS011;3551;41.578;24.706;2023-08-30T12:34:29;22.87;;;8.33;;
3463;SDS011;3551;41.578;24.706;2023-08-30T12:36:56;20.13;;;8.23;;
3463;SDS011;3551;41.578;24.706;2023-08-30T12:39:28;21.00;;;7.90;;
3463;SDS011;3551;41.578;24.706;2023-08-30T12:41:55;20.93;;;8.10;;
3463;SDS011;3551;41.578;24.706;2023-08-30T12:44:22;10.93;;;7.60;;
3463;SDS011;3551;41.578;24.706;2023-08-30T12:46:49;27.33;;;9.40;;
3463;SDS011;3551;41.578;24.706;2023-08-30T12:49:16;25.87;;;8.90;;
3463;SDS011;3551;41.578;24.706;2023-08-30T12:51:43;16.83;;;8.43;;
3463;SDS011;3551;41.578;24.706;2023-08-30T12:54:10;45.23;;;10.90;;
3463;SDS011;3551;41.578;24.706;2023-08-30T12:56:42;20.23;;;8.43;;
3463;SDS011;3551;41.578;24.706;2023-08-30T12:59:09;17.83;;;7.70;;
3463;SDS011;3551;41.578;24.706;2023-08-30T13:08:56;13.90;;;7.67;;
3463;SDS011;3551;41.578;24.706;2023-08-30T13:11:28;78.60;;;11.77;;
3463;SDS011;3551;41.578;24.706;2023-08-30T13:14:13;60.57;;;9.87;;
3463;SDS011;3551;41.578;24.706;2023-08-30T13:16:51;23.87;;;8.60;;
3463;SDS011;3551;41.578;24.706;2023-08-30T13:20:08;22.30;;;8.27;;
3463;SDS011;3551;41.578;24.706;2023-08-30T13:23:21;19.20;;;7.87;;
3463;SDS011;3551;41.578;24.706;2023-08-30T13:26:09;22.13;;;7.40;;
3463;SDS011;3551;41.578;24.706;2023-08-30T13:37:14;13.83;;;7.83;;
3463;SDS011;3551;41.578;24.706;2023-08-30T13:39:41;27.13;;;8.50;;
3463;SDS011;3551;41.578;24.706;2023-08-30T13:42:08;11.60;;;6.87;;
3463;SDS011;3551;41.578;24.706;2023-08-30T13:44:37;20.87;;;7.47;;
3463;SDS011;3551;41.578;24.706;2023-08-30T13:47:07;14.97;;;6.23;;
3463;SDS011;3551;41.578;24.706;2023-08-30T13:49:35;57.33;;;8.70;;
3463;SDS011;3551;41.578;24.706;2023-08-30T13:52:02;11.77;;;7.10;;
3463;SDS011;3551;41.578;24.706;2023-08-30T13:54:31;30.63;;;7.90;;
3463;SDS011;3551;41.578;24.706;2023-08-30T13:56:59;14.70;;;6.90;;
3463;SDS011;3551;41.578;24.706;2023-08-30T13:59:26;25.63;;;8.00;;
3463;SDS011;3551;41.578;24.706;2023-08-30T14:01:56;10.43;;;5.93;;
3463;SDS011;3551;41.578;24.706;2023-08-30T14:04:24;19.47;;;7.40;;
3463;SDS011;3551;41.578;24.706;2023-08-30T14:06:51;15.03;;;8.53;;
3463;SDS011;3551;41.578;24.706;2023-08-30T14:09:19;16.77;;;7.73;;
3463;SDS011;3551;41.578;24.706;2023-08-30T14:15:23;22.10;;;7.80;;
3463;SDS011;3551;41.578;24.706;2023-08-30T14:18:07;17.20;;;7.87;;
3463;SDS011;3551;41.578;24.706;2023-08-30T14:20:59;12.27;;;7.80;;
3463;SDS011;3551;41.578;24.706;2023-08-30T14:23:27;17.07;;;8.73;;
3463;SDS011;3551;41.578;24.706;2023-08-30T14:25:57;15.63;;;7.73;;
3463;SDS011;3551;41.578;24.706;2023-08-30T14:28:24;19.37;;;7.97;;
3463;SDS011;3551;41.578;24.706;2023-08-30T14:30:59;16.93;;;7.77;;
3463;SDS011;3551;41.578;24.706;2023-08-30T14:33:25;15.93;;;7.20;;
3463;SDS011;3551;41.578;24.706;2023-08-30T14:35:52;11.93;;;8.40;;
3463;SDS011;3551;41.578;24.706;2023-08-30T14:38:22;16.10;;;8.00;;
3463;SDS011;3551;41.578;24.706;2023-08-30T14:41:49;14.87;;;8.57;;
3463;SDS011;3551;41.578;24.706;2023-08-30T14:44:21;11.20;;;7.90;;
3463;SDS011;3551;41.578;24.706;2023-08-30T14:46:57;22.40;;;8.30;;
3463;SDS011;3551;41.578;24.706;2023-08-30T14:50:00;17.87;;;6.83;;
3463;SDS011;3551;41.578;24.706;2023-08-30T14:52:28;20.67;;;7.67;;
3463;SDS011;3551;41.578;24.706;2023-08-30T14:54:59;8.63;;;7.10;;
3463;SDS011;3551;41.578;24.706;2023-08-30T14:57:26;12.03;;;7.30;;
3463;SDS011;3551;41.578;24.706;2023-08-30T15:00:00;16.73;;;8.03;;
3463;SDS011;3551;41.578;24.706;2023-08-30T15:02:29;12.43;;;7.80;;
3463;SDS011;3551;41.578;24.706;2023-08-30T15:04:57;10.10;;;7.80;;
3463;SDS011;3551;41.578;24.706;2023-08-30T15:07:37;20.03;;;7.90;;
3463;SDS011;3551;41.578;24.706;2023-08-30T15:10:07;18.73;;;9.03;;
3463;SDS011;3551;41.578;24.706;2023-08-30T15:12:49;9.60;;;7.97;;
3463;SDS011;3551;41.578;24.706;2023-08-30T15:15:25;13.57;;;7.90;;
3463;SDS011;3551;41.578;24.706;2023-08-30T15:20:51;13.33;;;7.10;;
3463;SDS011;3551;41.578;24.706;2023-08-30T15:23:23;26.60;;;8.10;;
3463;SDS011;3551;41.578;24.706;2023-08-30T15:25:53;12.27;;;7.60;;
3463;SDS011;3551;41.578;24.706;2023-08-30T15:28:23;21.23;;;8.37;;
3463;SDS011;3551;41.578;24.706;2023-08-30T15:30:50;14.63;;;7.43;;
3463;SDS011;3551;41.578;24.706;2023-08-30T15:33:20;24.87;;;7.80;;
3463;SDS011;3551;41.578;24.706;2023-08-30T15:35:52;16.83;;;7.80;;
3463;SDS011;3551;41.578;24.706;2023-08-30T15:38:20;11.33;;;8.00;;
3463;SDS011;3551;41.578;24.706;2023-08-30T15:40:54;13.93;;;8.27;;
3463;SDS011;3551;41.578;24.706;2023-08-30T15:43:24;15.20;;;8.30;;
3463;SDS011;3551;41.578;24.706;2023-08-30T15:45:56;17.83;;;7.70;;
3463;SDS011;3551;41.578;24.706;2023-08-30T15:48:27;13.60;;;7.80;;
3463;SDS011;3551;41.578;24.706;2023-08-30T15:51:00;13.67;;;7.83;;
3463;SDS011;3551;41.578;24.706;2023-08-30T15:53:28;13.13;;;8.83;;
3463;SDS011;3551;41.578;24.706;2023-08-30T15:56:02;21.17;;;8.73;;
3463;SDS011;3551;41.578;24.706;2023-08-30T15:58:30;16.10;;;9.10;;
3463;SDS011;3551;41.578;24.706;2023-08-30T16:01:03;10.17;;;8.57;;
3463;SDS011;3551;41.578;24.706;2023-08-30T16:03:36;12.73;;;9.47;;
3463;SDS011;3551;41.578;24.706;2023-08-30T16:06:06;10.20;;;8.67;;
3463;SDS011;3551;41.578;24.706;2023-08-30T16:08:40;14.17;;;8.67;;
3463;SDS011;3551;41.578;24.706;2023-08-30T16:11:11;40.77;;;9.70;;
3463;SDS011;3551;41.578;24.706;2023-08-30T16:13:39;12.43;;;8.70;;
3463;SDS011;3551;41.578;24.706;2023-08-30T16:16:07;19.50;;;9.30;;